Time;durP1;ratioP1;P1;durP2;ratioP2;P2;SDS_P1;SDS_P2;PMS_P1;PMS_P2;Temp;Humidity;BMP_temperature;BMP_pressure;BME280_temperature;BME280_humidity;BME280_pressure;Samples;Min_cycle;Max_cycle;Signal;HPM_P1;HPM_P2
2022/12/28 00:00:28;;;;;;;9.55;4.13;;;;;;;6.83;100.00;101570.72;5032561;28;20565;-73
2022/12/28 00:02:55;;;;;;;13.82;3.95;;;;;;;6.88;100.00;101553.75;5029159;28;20048;-73
2022/12/28 00:05:20;;;;;;;18.25;4.32;;;;;;;7.00;100.00;101542.69;5035473;28;20041;-72
2022/12/28 00:07:46;;;;;;;12.13;3.97;;;;;;;7.06;100.00;101535.41;5032806;28;20868;-74
2022/12/28 00:10:11;;;;;;;9.18;4.32;;;;;;;7.09;100.00;101530.00;5037607;28;20041;-73
2022/12/28 00:12:37;;;;;;;16.08;6.30;;;;;;;7.12;100.00;101530.75;5032945;28;20802;-74
2022/12/28 00:15:02;;;;;;;10.35;4.28;;;;;;;7.10;100.00;101519.34;5034318;28;20053;-70
2022/12/28 00:17:28;;;;;;;10.07;4.72;;;;;;;6.86;100.00;101512.31;5027786;28;20095;-70
2022/12/28 00:19:53;;;;;;;10.93;4.95;;;;;;;7.13;100.00;101500.66;5031991;28;20819;-72
2022/12/28 00:22:19;;;;;;;11.27;4.70;;;;;;;7.27;100.00;101500.97;5036267;28;20063;-72
2022/12/28 00:24:44;;;;;;;12.45;4.63;;;;;;;7.19;100.00;101489.81;5031794;28;20114;-71
2022/12/28 00:27:10;;;;;;;11.90;4.78;;;;;;;7.05;100.00;101476.22;5038237;28;20099;-72
2022/12/28 00:29:35;;;;;;;11.65;5.10;;;;;;;7.09;100.00;101469.03;5039229;28;20053;-71
2022/12/28 00:32:01;;;;;;;13.95;4.30;;;;;;;7.07;100.00;101471.72;5038748;28;20052;-72
2022/12/28 00:34:26;;;;;;;10.13;3.63;;;;;;;7.02;100.00;101471.03;5033845;28;20045;-72
2022/12/28 00:36:52;;;;;;;25.30;4.57;;;;;;;6.98;100.00;101464.13;5033099;28;20593;-72
2022/12/28 00:39:21;;;;;;;11.35;4.57;;;;;;;7.12;100.00;101455.63;5031482;28;20053;-72
2022/12/28 00:41:46;;;;;;;11.02;4.85;;;;;;;7.28;100.00;101446.16;5034829;28;20046;-72
2022/12/28 00:44:12;;;;;;;9.82;4.70;;;;;;;7.28;100.00;101446.16;5028055;28;20045;-71
2022/12/28 00:46:37;;;;;;;10.30;4.43;;;;;;;7.26;100.00;101442.69;5014724;28;20099;-71
2022/12/28 00:49:03;;;;;;;11.43;4.35;;;;;;;7.09;100.00;101434.53;5041608;28;20060;-72
2022/12/28 00:51:28;;;;;;;14.05;4.75;;;;;;;7.29;100.00;101426.66;5041066;28;20049;-71
2022/12/28 00:53:54;;;;;;;10.05;3.90;;;;;;;7.28;100.00;101424.94;5029388;28;20053;-73
2022/12/28 00:56:21;;;;;;;10.40;5.03;;;;;;;7.36;100.00;101419.31;5042171;28;20056;-71
2022/12/28 00:58:47;;;;;;;12.38;4.40;;;;;;;7.00;100.00;101411.91;5035981;28;20045;-71
2022/12/28 01:01:19;;;;;;;10.00;4.40;;;;;;;7.38;100.00;101407.72;5029459;28;20048;-71
2022/12/28 01:03:45;;;;;;;12.50;4.35;;;;;;;7.11;100.00;101412.31;5041907;28;20041;-71
2022/12/28 01:06:12;;;;;;;11.10;4.00;;;;;;;7.12;100.00;101407.88;5039952;28;20053;-73
2022/12/28 01:08:38;;;;;;;8.70;3.50;;;;;;;7.08;100.00;101401.88;5035563;28;20048;-71
2022/12/28 01:11:21;;;;;;;7.68;4.18;;;;;;;7.31;100.00;101403.56;5036286;28;20048;-71
2022/12/28 01:13:48;;;;;;;14.55;4.13;;;;;;;7.37;100.00;101407.75;5053187;28;20132;-71
2022/12/28 01:16:15;;;;;;;12.73;4.43;;;;;;;7.30;100.00;101404.50;5034590;28;20049;-71
2022/12/28 01:18:41;;;;;;;17.10;4.43;;;;;;;7.47;100.00;101396.69;5026412;28;20760;-71
2022/12/28 01:21:11;;;;;;;11.27;4.30;;;;;;;7.37;100.00;101403.31;5042914;28;20044;-71
2022/12/28 01:23:36;;;;;;;24.88;5.82;;;;;;;7.36;100.00;101382.16;5035301;28;20058;-71
2022/12/28 01:26:04;;;;;;;10.60;5.22;;;;;;;7.43;100.00;101379.22;5042062;28;20525;-71
2022/12/28 01:28:29;;;;;;;7.22;3.95;;;;;;;7.55;100.00;101399.06;5030370;28;20076;-74
2022/12/28 01:30:55;;;;;;;13.45;4.93;;;;;;;7.31;100.00;101377.03;5037020;28;20036;-71
2022/12/28 01:33:20;;;;;;;13.07;4.28;;;;;;;7.52;100.00;101369.97;5018023;28;20057;-71
2022/12/28 01:35:46;;;;;;;15.05;4.63;;;;;;;7.76;100.00;101363.63;5032754;28;20056;-71
2022/12/28 01:38:11;;;;;;;9.27;4.43;;;;;;;7.46;100.00;101352.53;5041322;28;20064;-73
2022/12/28 01:40:41;;;;;;;10.68;4.40;;;;;;;7.57;100.00;101356.50;5037897;28;20056;-71
2022/12/28 01:43:13;;;;;;;9.38;4.22;;;;;;;7.70;100.00;101352.41;5040034;28;20505;-71
2022/12/28 01:45:39;;;;;;;18.73;5.88;;;;;;;7.64;100.00;101342.94;5040248;28;20064;-71
2022/12/28 01:48:15;;;;;;;10.48;4.05;;;;;;;7.71;100.00;101340.88;5034967;28;20047;-71
2022/12/28 01:50:42;;;;;;;9.55;3.80;;;;;;;7.47;100.00;101333.00;5036690;28;20057;-70
2022/12/28 01:53:07;;;;;;;7.28;4.45;;;;;;;7.88;100.00;101325.06;5054316;28;20549;-73
2022/12/28 01:55:38;;;;;;;9.15;4.40;;;;;;;7.71;100.00;101323.13;5030212;28;20175;-73
2022/12/28 01:58:06;;;;;;;9.65;4.50;;;;;;;7.78;100.00;101311.34;5036262;28;20041;-73
2022/12/28 02:00:32;;;;;;;8.95;4.28;;;;;;;7.88;100.00;101301.19;5040989;28;20053;-73
2022/12/28 02:03:10;;;;;;;12.00;5.18;;;;;;;7.83;100.00;101305.84;5033130;28;20101;-73
2022/12/28 02:05:40;;;;;;;7.53;4.45;;;;;;;7.89;100.00;101300.25;5036317;28;20057;-73
2022/12/28 02:08:15;;;;;;;13.20;4.15;;;;;;;7.95;100.00;101307.06;5024216;28;20041;-73
2022/12/28 02:10:43;;;;;;;10.30;4.97;;;;;;;8.11;100.00;101305.44;5027413;28;20045;-73
2022/12/28 02:13:09;;;;;;;9.70;4.18;;;;;;;7.94;100.00;101290.28;5026997;28;20045;-70
2022/12/28 02:15:34;;;;;;;8.77;4.35;;;;;;;7.81;100.00;101289.09;5039006;28;20063;-71
2022/12/28 02:18:01;;;;;;;6.72;3.88;;;;;;;8.03;100.00;101286.31;5041627;28;20037;-70
2022/12/28 02:21:09;;;;;;;10.95;5.18;;;;;;;7.78;100.00;101279.50;5033439;28;20075;-71
2022/12/28 02:23:59;;;;;;;8.90;4.50;;;;;;;8.08;100.00;101273.69;5002522;28;20463;-71
2022/12/28 02:26:27;;;;;;;9.85;4.40;;;;;;;8.05;100.00;101264.09;5028328;28;20136;-73
2022/12/28 02:29:08;;;;;;;9.77;4.60;;;;;;;7.97;100.00;101247.63;5042140;28;20055;-73
2022/12/28 02:31:42;;;;;;;9.40;3.92;;;;;;;8.22;100.00;101244.69;5035785;28;20044;-73
2022/12/28 02:34:10;;;;;;;8.30;3.92;;;;;;;8.07;100.00;101240.09;5038376;28;20049;-69
2022/12/28 02:36:41;;;;;;;9.90;5.03;;;;;;;8.13;100.00;101223.00;5040209;28;20101;-73
2022/12/28 02:39:16;;;;;;;8.90;4.15;;;;;;;8.28;100.00;101235.56;5035891;28;20479;-73
2022/12/28 02:41:44;;;;;;;15.48;4.43;;;;;;;8.04;100.00;101233.16;5039681;28;20095;-73
2022/12/28 02:44:09;;;;;;;13.25;4.43;;;;;;;8.15;100.00;101218.50;5040014;28;20041;-70
2022/12/28 02:52:26;;;;;;;11.90;4.80;;;;;;;8.19;100.00;101206.81;4979308;28;20105;-71
2022/12/28 02:58:27;;;;;;;6.68;4.03;;;;;;;8.23;100.00;101195.06;4982907;28;20053;-70
2022/12/28 03:00:58;;;;;;;7.95;4.03;;;;;;;8.17;100.00;101187.41;4962578;28;20053;-71
2022/12/28 03:03:34;;;;;;;7.65;3.63;;;;;;;8.13;100.00;101204.41;4990619;28;20050;-73
2022/12/28 03:09:40;;;;;;;11.85;4.50;;;;;;;8.08;100.00;101203.78;4977962;28;20061;-73
2022/12/28 03:12:13;;;;;;;14.25;5.78;;;;;;;8.07;100.00;101181.66;4966555;28;20706;-73
2022/12/28 03:14:44;;;;;;;8.07;4.65;;;;;;;7.95;100.00;101183.13;4984290;28;20076;-73
2022/12/28 03:31:19;;;;;;;6.80;4.65;;;;;;;7.76;100.00;101158.34;5036881;28;20045;-71
2022/12/28 03:33:52;;;;;;;12.57;5.40;;;;;;;8.04;100.00;101160.59;5037799;28;20103;-73
2022/12/28 03:36:36;;;;;;;12.50;5.85;;;;;;;7.86;100.00;101148.16;5039930;28;20147;-72
2022/12/28 03:39:15;;;;;;;17.67;6.80;;;;;;;7.87;100.00;101149.88;5024273;28;20053;-72
2022/12/28 03:41:47;;;;;;;13.38;5.97;;;;;;;7.91;100.00;101149.66;5036562;28;20064;-71
2022/12/28 03:44:33;;;;;;;14.23;6.32;;;;;;;7.90;100.00;101147.97;5022228;28;20064;-71
2022/12/28 03:47:12;;;;;;;16.90;6.15;;;;;;;7.86;100.00;101138.41;5034061;28;20068;-72
2022/12/28 03:49:38;;;;;;;17.00;8.45;;;;;;;7.96;100.00;101134.38;5041208;28;20043;-71
2022/12/28 03:52:06;;;;;;;18.85;8.32;;;;;;;7.73;100.00;101138.16;5036729;28;20048;-71
2022/12/28 03:54:32;;;;;;;16.00;8.60;;;;;;;7.90;100.00;101133.81;5022208;28;20052;-71
2022/12/28 03:56:57;;;;;;;13.35;8.07;;;;;;;7.96;100.00;101133.53;5032346;28;20037;-72
2022/12/28 03:59:28;;;;;;;15.73;8.95;;;;;;;8.00;100.00;101124.47;5035997;28;20049;-72
2022/12/28 04:01:54;;;;;;;15.95;9.15;;;;;;;7.99;100.00;101120.13;5038460;28;20069;-72
2022/12/28 04:04:20;;;;;;;17.33;8.10;;;;;;;8.07;100.00;101117.06;5027005;28;20052;-72
2022/12/28 04:06:47;;;;;;;17.55;8.55;;;;;;;8.07;100.00;101125.03;5041932;28;20064;-72
2022/12/28 04:09:13;;;;;;;17.48;8.18;;;;;;;7.88;100.00;101112.66;5028132;28;20120;-72
2022/12/28 04:11:40;;;;;;;14.07;8.63;;;;;;;8.18;100.00;101104.13;5034073;28;20049;-73
2022/12/28 04:14:08;;;;;;;16.13;8.02;;;;;;;8.07;100.00;101101.13;5026442;28;20095;-72
2022/12/28 04:16:35;;;;;;;15.80;8.77;;;;;;;8.10;100.00;101106.31;5018642;28;20123;-72
2022/12/28 04:19:03;;;;;;;14.95;8.23;;;;;;;8.07;100.00;101101.13;5036088;28;20037;-73
2022/12/28 04:21:29;;;;;;;13.07;7.63;;;;;;;8.07;100.00;101103.78;5033541;28;20067;-72
2022/12/28 04:23:55;;;;;;;16.67;8.57;;;;;;;8.24;100.00;101106.50;5039538;28;20053;-72
2022/12/28 04:26:21;;;;;;;18.38;8.85;;;;;;;8.20;100.00;101102.25;5026778;28;20340;-72
2022/12/28 04:28:49;;;;;;;22.88;9.30;;;;;;;8.30;100.00;101098.22;5043967;28;20072;-72
2022/12/28 04:31:35;;;;;;;18.83;8.77;;;;;;;8.34;100.00;101101.59;5031126;28;20053;-72
2022/12/28 04:34:07;;;;;;;13.73;7.78;;;;;;;8.11;100.00;101092.94;5031675;28;20577;-72
2022/12/28 04:36:38;;;;;;;16.85;8.38;;;;;;;8.29;100.00;101101.81;5039272;28;20037;-72
2022/12/28 04:39:07;;;;;;;14.20;8.25;;;;;;;8.29;100.00;101091.19;5042132;28;20079;-73
2022/12/28 04:41:33;;;;;;;13.30;8.95;;;;;;;8.46;100.00;101099.19;5038280;28;20040;-72
2022/12/28 04:43:58;;;;;;;16.48;8.93;;;;;;;8.40;100.00;101083.56;5042522;28;20037;-74
2022/12/28 04:46:24;;;;;;;13.90;8.77;;;;;;;8.43;100.00;101079.88;5022495;28;20152;-71
2022/12/28 04:48:50;;;;;;;15.05;7.80;;;;;;;8.44;100.00;101085.13;5043375;28;20049;-74
2022/12/28 04:51:24;;;;;;;12.52;8.57;;;;;;;8.64;100.00;101084.13;5030371;28;20053;-71
2022/12/28 04:53:51;;;;;;;24.02;9.95;;;;;;;8.40;100.00;101080.06;5036694;28;20041;-72
2022/12/28 04:56:18;;;;;;;14.35;7.68;;;;;;;8.51;100.00;101070.59;5033971;28;20065;-72
2022/12/28 04:58:45;;;;;;;13.57;7.25;;;;;;;8.34;100.00;101065.25;5036029;28;20053;-73
2022/12/28 05:01:14;;;;;;;12.75;6.93;;;;;;;8.24;100.00;101064.00;5034608;28;20494;-71
2022/12/28 05:03:41;;;;;;;14.18;7.28;;;;;;;8.50;100.00;101066.22;5040064;28;20099;-72
2022/12/28 05:06:11;;;;;;;13.23;8.18;;;;;;;8.50;100.00;101063.56;5039043;28;20041;-72
2022/12/28 05:08:37;;;;;;;19.35;8.05;;;;;;;8.60;100.00;101061.28;5042996;28;20124;-70
2022/12/28 05:11:09;;;;;;;13.23;7.30;;;;;;;8.52;100.00;101058.16;5043126;28;20060;-73
2022/12/28 05:13:35;;;;;;;16.77;9.00;;;;;;;8.52;100.00;101064.31;5034846;28;20182;-71
2022/12/28 05:16:05;;;;;;;13.68;7.50;;;;;;;8.57;100.00;101074.72;5036422;28;20057;-71
2022/12/28 05:18:31;;;;;;;15.35;8.35;;;;;;;8.45;100.00;101060.28;5034851;28;20045;-71
2022/12/28 05:21:01;;;;;;;13.70;7.05;;;;;;;8.37;100.00;101053.63;5037615;28;20434;-73
2022/12/28 05:23:33;;;;;;;18.67;8.20;;;;;;;8.69;100.00;101059.97;5037922;28;20067;-71
2022/12/28 05:25:58;;;;;;;14.40;8.48;;;;;;;8.52;100.00;101056.34;5034860;28;20402;-74
2022/12/28 05:28:25;;;;;;;18.40;8.38;;;;;;;8.53;100.00;101049.22;5032111;28;20045;-73
2022/12/28 05:30:51;;;;;;;20.30;9.18;;;;;;;8.56;100.00;101046.44;5036272;28;20045;-73
2022/12/28 05:33:18;;;;;;;16.83;9.07;;;;;;;8.56;100.00;101060.56;5039603;28;20520;-71
2022/12/28 05:35:43;;;;;;;17.88;8.23;;;;;;;8.63;100.00;101049.63;5040588;28;20052;-72
2022/12/28 05:38:09;;;;;;;18.02;9.27;;;;;;;8.76;100.00;101048.91;5030966;28;20053;-71
2022/12/28 05:40:34;;;;;;;19.42;9.40;;;;;;;8.67;100.00;101046.72;5029842;28;20076;-71
2022/12/28 05:43:00;;;;;;;18.77;9.55;;;;;;;8.63;100.00;101039.00;5029579;28;20041;-71
2022/12/28 05:45:25;;;;;;;19.27;9.18;;;;;;;8.65;100.00;101061.06;5034095;28;20132;-71
2022/12/28 05:47:52;;;;;;;13.77;8.95;;;;;;;8.66;100.00;101057.44;5037231;28;20060;-71
2022/12/28 05:50:18;;;;;;;17.58;8.45;;;;;;;8.79;100.00;101050.56;5039509;28;20049;-73
2022/12/28 05:52:43;;;;;;;21.00;9.32;;;;;;;8.77;100.00;101049.75;5029291;28;20056;-74
2022/12/28 05:55:09;;;;;;;15.52;9.63;;;;;;;8.69;100.00;101046.66;5036461;28;20056;-73
2022/12/28 05:57:34;;;;;;;18.20;8.73;;;;;;;8.77;100.00;101049.75;5030028;28;20067;-73
2022/12/28 06:00:00;;;;;;;16.33;9.43;;;;;;;8.91;100.00;101049.91;5046188;28;20501;-73
2022/12/28 06:02:26;;;;;;;16.58;9.15;;;;;;;8.76;100.00;101038.28;5040286;28;20051;-73
2022/12/28 06:04:54;;;;;;;18.45;8.38;;;;;;;8.89;100.00;101035.84;5035745;28;20156;-71
2022/12/28 06:07:20;;;;;;;12.07;8.60;;;;;;;8.77;100.00;101034.66;5027824;28;20046;-71
2022/12/28 06:09:46;;;;;;;16.40;8.80;;;;;;;8.89;100.00;101027.88;5023604;28;20419;-71
2022/12/28 06:12:11;;;;;;;21.55;8.73;;;;;;;8.85;100.00;101033.41;5034220;28;20064;-71
2022/12/28 06:14:36;;;;;;;14.90;8.23;;;;;;;8.72;100.00;101028.72;5040006;28;20052;-72
2022/12/28 06:17:02;;;;;;;15.43;8.15;;;;;;;8.96;100.00;101039.88;5029819;28;20057;-72
2022/12/28 06:19:27;;;;;;;14.95;8.98;;;;;;;8.98;100.00;101032.66;5035486;28;20065;-72
2022/12/28 06:21:53;;;;;;;16.88;7.47;;;;;;;8.88;100.00;101033.25;5039244;28;20049;-73
2022/12/28 06:24:18;;;;;;;15.63;7.85;;;;;;;8.82;100.00;101021.13;5035915;28;20064;-71
2022/12/28 06:26:44;;;;;;;22.73;7.57;;;;;;;8.88;100.00;101020.81;5034619;28;20660;-72
2022/12/28 06:29:10;;;;;;;19.00;8.57;;;;;;;9.00;100.00;101011.31;5042311;28;20041;-72
2022/12/28 06:31:38;;;;;;;12.90;7.45;;;;;;;9.08;100.00;101017.91;5042386;28;20059;-72
2022/12/28 06:34:05;;;;;;;18.27;9.02;;;;;;;9.19;100.00;101012.03;5038365;28;20398;-71
2022/12/28 06:36:39;;;;;;;17.00;8.40;;;;;;;9.09;100.00;101021.47;5028599;28;20064;-71
2022/12/28 06:39:08;;;;;;;20.40;8.75;;;;;;;9.06;100.00;101003.00;5038284;28;20053;-72
2022/12/28 06:41:34;;;;;;;12.98;7.30;;;;;;;8.89;100.00;101019.88;5031999;28;20065;-72
2022/12/28 06:44:00;;;;;;;14.05;7.65;;;;;;;8.90;100.00;101018.94;5037436;28;20047;-72
2022/12/28 06:46:29;;;;;;;13.85;7.20;;;;;;;9.11;100.00;101027.56;5034437;28;20057;-73
2022/12/28 06:48:54;;;;;;;15.82;7.53;;;;;;;9.06;100.00;101021.63;5035351;28;20045;-72
2022/12/28 06:51:22;;;;;;;11.27;7.32;;;;;;;9.14;100.00;101018.56;5038317;28;20057;-71
2022/12/28 06:53:50;;;;;;;13.27;7.68;;;;;;;9.13;100.00;101019.47;5038693;28;20140;-72
2022/12/28 06:56:24;;;;;;;19.00;8.02;;;;;;;9.17;100.00;101013.06;5021509;28;20413;-71
2022/12/28 06:58:50;;;;;;;10.55;7.20;;;;;;;9.25;100.00;101014.38;5038899;28;20055;-71
2022/12/28 07:01:22;;;;;;;13.65;7.60;;;;;;;9.13;100.00;101019.47;5037340;28;20107;-71
2022/12/28 07:03:49;;;;;;;15.85;8.90;;;;;;;9.26;100.00;101023.19;5035986;28;20164;-71
2022/12/28 07:06:17;;;;;;;11.23;7.43;;;;;;;9.27;100.00;101009.81;5029813;28;20041;-71
2022/12/28 07:08:44;;;;;;;13.82;7.20;;;;;;;9.29;100.00;101007.06;5035893;28;20053;-72
2022/12/28 07:11:12;;;;;;;16.67;7.28;;;;;;;9.24;100.00;101004.66;5032409;28;20355;-71
2022/12/28 07:13:38;;;;;;;18.27;8.52;;;;;;;9.26;100.00;101002.78;5033751;28;20053;-72
2022/12/28 07:16:09;;;;;;;12.05;6.32;;;;;;;9.16;100.00;100998.91;5036459;28;20053;-72
2022/12/28 07:18:36;;;;;;;11.15;6.50;;;;;;;9.36;100.00;101005.78;5024449;28;20053;-71
2022/12/28 07:21:07;;;;;;;11.60;6.28;;;;;;;9.26;100.00;101000.09;5036768;28;20160;-71
2022/12/28 07:23:33;;;;;;;9.57;6.10;;;;;;;9.42;100.00;101000.09;5033126;28;20056;-71
2022/12/28 07:26:13;;;;;;;9.68;6.25;;;;;;;9.40;100.00;100993.16;5033209;28;20747;-70
2022/12/28 07:28:41;;;;;;;8.63;5.18;;;;;;;9.43;100.00;101004.47;5036223;28;20137;-74
2022/12/28 07:31:09;;;;;;;9.48;5.80;;;;;;;9.39;100.00;100996.75;5040777;28;20468;-73
2022/12/28 07:33:35;;;;;;;7.32;5.10;;;;;;;9.47;100.00;101010.50;5051556;28;20055;-74
2022/12/28 07:36:02;;;;;;;9.30;5.40;;;;;;;9.39;100.00;101013.59;5038974;28;20053;-71
2022/12/28 07:38:29;;;;;;;10.48;5.70;;;;;;;9.48;100.00;101010.41;5041851;28;20651;-71
2022/12/28 07:41:08;;;;;;;11.30;5.20;;;;;;;9.51;100.00;101001.41;5041318;28;20053;-71
2022/12/28 07:43:34;;;;;;;9.60;5.82;;;;;;;9.42;100.00;101007.22;5037367;28;20088;-71
2022/12/28 07:46:07;;;;;;;10.77;6.03;;;;;;;9.39;100.00;101005.63;5040398;28;20596;-72
2022/12/28 07:48:34;;;;;;;15.18;6.50;;;;;;;9.45;100.00;101002.59;5029615;28;20037;-73
2022/12/28 07:51:07;;;;;;;16.08;5.95;;;;;;;9.53;100.00;101000.34;5029336;28;20136;-72
2022/12/28 07:53:33;;;;;;;9.43;5.32;;;;;;;9.59;100.00;101009.81;5035679;28;20049;-71
2022/12/28 07:55:59;;;;;;;7.88;5.47;;;;;;;9.61;100.00;101005.25;5035761;28;20047;-73
2022/12/28 07:58:26;;;;;;;12.50;5.88;;;;;;;9.50;100.00;101000.53;5030933;28;20160;-71
2022/12/28 08:00:52;;;;;;;9.73;6.15;;;;;;;9.66;100.00;100994.34;5028398;28;20132;-71
2022/12/28 08:03:18;;;;;;;10.80;6.25;;;;;;;9.47;100.00;101011.34;5028486;28;20384;-71
2022/12/28 08:05:43;;;;;;;11.68;6.90;;;;;;;9.62;100.00;101008.78;5036652;28;20064;-74
2022/12/28 08:08:09;;;;;;;10.57;6.05;;;;;;;9.64;100.00;101009.53;5038324;28;20170;-74
2022/12/28 08:10:35;;;;;;;13.55;6.60;;;;;;;9.64;100.00;101009.53;5033716;28;20048;-73
2022/12/28 08:13:01;;;;;;;12.75;6.65;;;;;;;9.67;100.00;101004.06;5039190;28;20115;-73
2022/12/28 08:15:27;;;;;;;11.02;6.60;;;;;;;9.60;100.00;101009.72;5037214;28;20775;-73
2022/12/28 08:17:53;;;;;;;11.77;6.13;;;;;;;9.57;100.00;101009.88;5031542;28;20211;-74
2022/12/28 08:20:19;;;;;;;13.05;7.10;;;;;;;9.57;100.00;101001.06;5036212;28;20064;-73
2022/12/28 08:22:45;;;;;;;12.13;5.88;;;;;;;9.48;100.00;101010.41;5040697;28;20405;-74
2022/12/28 08:25:11;;;;;;;15.80;6.97;;;;;;;9.74;100.00;101011.63;5038935;28;20041;-73
2022/12/28 08:27:36;;;;;;;16.00;6.88;;;;;;;9.75;100.00;101005.34;5038742;28;20049;-73
2022/12/28 08:30:02;;;;;;;11.52;6.78;;;;;;;9.71;100.00;101001.13;5040075;28;20056;-73
2022/12/28 08:32:28;;;;;;;10.65;7.07;;;;;;;9.55;100.00;101002.94;5039466;28;20060;-74
2022/12/28 08:34:53;;;;;;;9.52;6.35;;;;;;;9.70;100.00;100998.56;5038188;28;20053;-73
2022/12/28 08:37:19;;;;;;;12.85;7.03;;;;;;;9.69;100.00;101007.47;5032134;28;20057;-73
2022/12/28 08:39:44;;;;;;;9.48;6.72;;;;;;;9.79;100.00;101006.03;5034486;28;20041;-73
2022/12/28 08:42:10;;;;;;;12.50;5.82;;;;;;;9.66;100.00;101003.19;5038314;28;20076;-73
2022/12/28 08:44:35;;;;;;;10.88;6.28;;;;;;;9.77;100.00;101006.09;5041049;28;20044;-73
2022/12/28 08:47:00;;;;;;;8.93;5.80;;;;;;;9.85;100.00;101005.66;5031180;28;20127;-72
2022/12/28 08:49:26;;;;;;;10.15;5.82;;;;;;;9.70;100.00;101006.56;5033276;28;20044;-71
2022/12/28 08:51:51;;;;;;;16.08;6.20;;;;;;;9.79;100.00;101012.22;5039671;28;20060;-72
2022/12/28 08:54:17;;;;;;;9.63;5.47;;;;;;;9.73;100.00;101012.53;5040814;28;20056;-71
2022/12/28 08:56:43;;;;;;;8.13;5.68;;;;;;;10.00;100.00;101004.78;5040987;28;20045;-72
2022/12/28 08:59:14;;;;;;;9.25;5.72;;;;;;;9.66;100.00;101003.19;5032838;28;20454;-73
2022/12/28 09:01:39;;;;;;;10.43;6.72;;;;;;;9.89;100.00;101012.53;5040268;28;20051;-72
2022/12/28 09:04:06;;;;;;;10.43;6.45;;;;;;;9.93;100.00;101003.41;5042730;28;20053;-72
2022/12/28 09:06:34;;;;;;;12.95;6.30;;;;;;;9.89;100.00;101009.88;5035659;28;20057;-72
2022/12/28 09:09:00;;;;;;;9.05;6.28;;;;;;;9.79;100.00;101009.53;5035423;28;20592;-72
2022/12/28 09:11:26;;;;;;;12.07;6.20;;;;;;;9.95;100.00;101003.34;5033671;28;20057;-71
2022/12/28 09:13:52;;;;;;;12.75;6.85;;;;;;;9.86;100.00;101007.38;5038235;28;20068;-72
2022/12/28 09:16:22;;;;;;;17.73;6.85;;;;;;;10.10;100.00;101005.94;5036923;28;20052;-71
2022/12/28 09:18:47;;;;;;;7.78;5.47;;;;;;;9.78;100.00;101007.81;5037269;28;20064;-73
2022/12/28 09:21:17;;;;;;;10.70;5.95;;;;;;;9.98;100.00;101004.00;5034887;28;20637;-72
2022/12/28 09:23:45;;;;;;;10.80;6.00;;;;;;;9.79;100.00;101014.88;5041816;28;20052;-71
2022/12/28 09:26:19;;;;;;;15.73;7.22;;;;;;;9.99;100.00;101011.06;5037020;28;20038;-71
2022/12/28 09:28:50;;;;;;;10.82;6.13;;;;;;;9.98;100.00;101003.13;5031271;28;20048;-72
2022/12/28 09:31:17;;;;;;;16.85;6.75;;;;;;;9.85;100.00;101013.66;5040116;28;20612;-71
2022/12/28 09:34:01;;;;;;;10.30;6.63;;;;;;;9.97;100.00;101010.28;5041499;28;20041;-71
2022/12/28 09:36:35;;;;;;;12.38;7.28;;;;;;;9.93;100.00;101010.53;5031245;28;20053;-72
2022/12/28 09:39:07;;;;;;;13.27;7.75;;;;;;;9.83;100.00;101015.53;5037028;28;20912;-72
2022/12/28 09:41:40;;;;;;;13.77;7.90;;;;;;;10.04;100.00;101016.97;5041570;28;20816;-72
2022/12/28 09:44:26;;;;;;;14.77;8.27;;;;;;;9.99;100.00;101010.16;5042820;28;20041;-72
2022/12/28 09:47:18;;;;;;;13.43;8.48;;;;;;;9.90;100.00;101000.94;5032911;28;20048;-72
2022/12/28 09:49:58;;;;;;;12.85;7.90;;;;;;;10.01;100.00;101001.16;5033809;28;20516;-72
2022/12/28 09:52:33;;;;;;;21.15;9.68;;;;;;;9.91;100.00;100996.47;5036275;28;20103;-72
2022/12/28 09:55:14;;;;;;;12.88;8.00;;;;;;;9.97;100.00;101001.44;5034360;28;20055;-72
2022/12/28 09:57:52;;;;;;;17.80;10.15;;;;;;;10.06;100.00;100998.22;5039321;28;20740;-71
2022/12/28 10:00:21;;;;;;;15.40;8.73;;;;;;;10.08;100.00;100991.00;5032217;28;20045;-71
2022/12/28 10:02:55;;;;;;;21.58;10.82;;;;;;;10.17;100.00;100997.59;5036042;28;20071;-73
2022/12/28 10:05:21;;;;;;;17.00;7.97;;;;;;;9.99;100.00;100988.84;5051766;28;20088;-71
2022/12/28 10:07:47;;;;;;;12.70;7.72;;;;;;;9.97;100.00;100986.28;5020139;28;20045;-73
2022/12/28 10:10:17;;;;;;;31.20;8.48;;;;;;;10.11;100.00;100991.69;5037945;28;20055;-71
2022/12/28 10:12:44;;;;;;;20.20;7.47;;;;;;;10.14;100.00;100982.66;5031384;28;20298;-71
2022/12/28 10:15:13;;;;;;;12.77;7.13;;;;;;;10.06;100.00;100983.09;5038072;28;20103;-71
2022/12/28 10:17:45;;;;;;;12.73;7.13;;;;;;;10.08;100.00;100975.00;5034957;28;20044;-71
2022/12/28 10:20:19;;;;;;;12.80;6.20;;;;;;;9.99;100.00;100976.44;5029794;28;20824;-71
2022/12/28 10:22:51;;;;;;;10.68;7.07;;;;;;;10.08;100.00;100975.84;5037924;28;20052;-71
2022/12/28 10:25:19;;;;;;;12.63;6.97;;;;;;;10.01;100.00;100965.66;5027447;28;20045;-71
2022/12/28 10:27:45;;;;;;;14.95;6.78;;;;;;;9.95;100.00;100972.22;5048988;28;20234;-71
2022/12/28 10:30:17;;;;;;;13.23;6.72;;;;;;;10.17;100.00;100969.13;5036402;28;20494;-71
2022/12/28 10:32:52;;;;;;;12.32;6.50;;;;;;;10.03;100.00;100959.28;5038768;28;20053;-71
2022/12/28 10:35:29;;;;;;;10.32;6.88;;;;;;;10.10;100.00;100963.31;5038691;28;20049;-71
2022/12/28 10:38:04;;;;;;;13.27;6.40;;;;;;;10.03;100.00;100953.09;5021119;28;20207;-72
2022/12/28 10:40:34;;;;;;;14.40;7.40;;;;;;;9.97;100.00;100961.47;5034720;28;20045;-72
2022/12/28 10:42:59;;;;;;;14.20;6.95;;;;;;;10.26;100.00;100960.63;5038957;28;20052;-71
2022/12/28 10:45:28;;;;;;;12.32;6.60;;;;;;;10.27;100.00;100951.66;5027999;28;20053;-73
2022/12/28 10:47:55;;;;;;;11.50;6.90;;;;;;;10.29;100.00;100946.25;5035700;28;20096;-71
2022/12/28 10:50:50;;;;;;;11.35;6.90;;;;;;;10.25;100.00;100942.06;5033366;28;20105;-71
2022/12/28 10:53:23;;;;;;;11.05;7.30;;;;;;;10.47;100.00;100949.59;5033350;28;20057;-70
2022/12/28 10:56:00;;;;;;;11.15;6.82;;;;;;;10.31;100.00;100947.88;5035946;28;20048;-72
2022/12/28 10:58:27;;;;;;;12.00;7.43;;;;;;;10.48;100.00;100941.50;5035580;28;20041;-71
2022/12/28 11:01:14;;;;;;;10.90;7.30;;;;;;;10.33;100.00;100939.78;5034048;28;20048;-71
2022/12/28 11:03:55;;;;;;;8.93;6.40;;;;;;;10.29;100.00;100936.47;5050612;28;20715;-71
2022/12/28 11:06:54;;;;;;;9.68;7.15;;;;;;;10.23;100.00;100931.44;5036027;28;20218;-74
2022/12/28 11:09:26;;;;;;;10.13;6.97;;;;;;;10.19;100.00;100929.94;5034589;28;20080;-74
2022/12/28 11:11:54;;;;;;;10.35;6.10;;;;;;;10.29;100.00;100920.47;5035769;28;20115;-71
2022/12/28 11:14:28;;;;;;;9.52;6.15;;;;;;;10.46;100.00;100932.75;5053531;28;20512;-71
2022/12/28 11:16:53;;;;;;;8.43;6.40;;;;;;;10.47;100.00;100920.28;5035226;28;20158;-72
2022/12/28 11:19:20;;;;;;;10.10;6.22;;;;;;;10.69;100.00;100917.97;5037140;28;20099;-71
2022/12/28 11:21:46;;;;;;;8.23;5.82;;;;;;;10.30;100.00;100914.19;5037718;28;20074;-71
2022/12/28 11:24:14;;;;;;;8.32;5.85;;;;;;;10.38;100.00;100913.69;5038986;28;20891;-74
2022/12/28 11:26:46;;;;;;;11.70;5.93;;;;;;;10.29;100.00;100909.81;5039759;28;20482;-73
2022/12/28 11:29:14;;;;;;;9.70;4.70;;;;;;;10.48;100.00;100906.84;5036819;28;20048;-73
2022/12/28 11:32:00;;;;;;;7.47;5.45;;;;;;;10.55;100.00;100910.88;5037847;28;20049;-72
2022/12/28 11:34:27;;;;;;;7.47;4.72;;;;;;;10.49;100.00;100907.69;5034633;28;20095;-72
2022/12/28 11:36:53;;;;;;;6.82;5.53;;;;;;;10.42;100.00;100899.25;5034958;28;20076;-72
2022/12/28 11:39:45;;;;;;;10.43;4.97;;;;;;;10.31;100.00;100894.56;5034994;28;20121;-71
2022/12/28 11:42:31;;;;;;;9.38;4.68;;;;;;;10.30;100.00;100900.00;5031519;28;20041;-72
2022/12/28 11:44:58;;;;;;;8.95;5.03;;;;;;;10.47;100.00;100894.47;5032380;28;20084;-72
2022/12/28 11:47:31;;;;;;;7.50;5.50;;;;;;;10.33;100.00;100889.13;5038634;28;20510;-71
2022/12/28 11:50:35;;;;;;;7.45;5.32;;;;;;;10.35;100.00;100884.59;5031320;28;20049;-72
2022/12/28 11:53:03;;;;;;;7.45;5.13;;;;;;;10.31;100.00;100883.06;5039379;28;20045;-71